sensor_id;sensor_type;location;lat;lon;timestamp;P1;durP1;ratioP1;P2;durP2;ratioP2
7813;SDS011;3952;48.364;16.022;2023-07-02T00:00:07;3.43;;;3.23;;
7813;SDS011;3952;48.364;16.022;2023-07-02T00:02:36;4.53;;;4.00;;
7813;SDS011;3952;48.364;16.022;2023-07-02T00:05:03;3.70;;;3.50;;
7813;SDS011;3952;48.364;16.022;2023-07-02T00:07:31;3.53;;;3.33;;
7813;SDS011;3952;48.364;16.022;2023-07-02T00:09:59;4.13;;;3.80;;
7813;SDS011;3952;48.364;16.022;2023-07-02T00:12:26;3.90;;;3.60;;
7813;SDS011;3952;48.364;16.022;2023-07-02T00:14:54;3.80;;;3.60;;
7813;SDS011;3952;48.364;16.022;2023-07-02T00:17:22;3.87;;;3.53;;
7813;SDS011;3952;48.364;16.022;2023-07-02T00:19:50;3.50;;;3.30;;
7813;SDS011;3952;48.364;16.022;2023-07-02T00:22:17;3.70;;;3.50;;
7813;SDS011;3952;48.364;16.022;2023-07-02T00:24:44;3.50;;;3.30;;
7813;SDS011;3952;48.364;16.022;2023-07-02T00:27:12;4.10;;;3.70;;
7813;SDS011;3952;48.364;16.022;2023-07-02T00:29:39;4.10;;;3.47;;
7813;SDS011;3952;48.364;16.022;2023-07-02T00:32:06;3.80;;;3.53;;
7813;SDS011;3952;48.364;16.022;2023-07-02T00:34:35;4.03;;;3.83;;
7813;SDS011;3952;48.364;16.022;2023-07-02T00:37:02;4.00;;;3.70;;
7813;SDS011;3952;48.364;16.022;2023-07-02T00:39:29;4.13;;;3.80;;
7813;SDS011;3952;48.364;16.022;2023-07-02T00:41:59;4.00;;;3.70;;
7813;SDS011;3952;48.364;16.022;2023-07-02T00:44:28;3.93;;;3.63;;
7813;SDS011;3952;48.364;16.022;2023-07-02T00:46:55;3.97;;;3.63;;
7813;SDS011;3952;48.364;16.022;2023-07-02T00:49:22;4.17;;;3.97;;
7813;SDS011;3952;48.364;16.022;2023-07-02T00:51:52;3.73;;;3.53;;
7813;SDS011;3952;48.364;16.022;2023-07-02T00:54:19;3.87;;;3.60;;
7813;SDS011;3952;48.364;16.022;2023-07-02T00:56:46;3.90;;;3.60;;
7813;SDS011;3952;48.364;16.022;2023-07-02T00:59:13;9.67;;;4.30;;
7813;SDS011;3952;48.364;16.022;2023-07-02T01:01:41;3.67;;;3.47;;
7813;SDS011;3952;48.364;16.022;2023-07-02T01:04:08;3.90;;;3.70;;
7813;SDS011;3952;48.364;16.022;2023-07-02T01:06:37;4.27;;;3.97;;
7813;SDS011;3952;48.364;16.022;2023-07-02T01:09:07;4.33;;;4.03;;
7813;SDS011;3952;48.364;16.022;2023-07-02T01:11:37;4.63;;;4.33;;
7813;SDS011;3952;48.364;16.022;2023-07-02T01:14:07;3.87;;;3.67;;
7813;SDS011;3952;48.364;16.022;2023-07-02T01:16:37;4.17;;;3.87;;
7813;SDS011;3952;48.364;16.022;2023-07-02T01:19:10;4.50;;;4.20;;
7813;SDS011;3952;48.364;16.022;2023-07-02T01:21:41;5.03;;;3.80;;
7813;SDS011;3952;48.364;16.022;2023-07-02T01:24:08;7.77;;;3.90;;
7813;SDS011;3952;48.364;16.022;2023-07-02T01:26:36;4.07;;;3.87;;
7813;SDS011;3952;48.364;16.022;2023-07-02T01:29:13;4.40;;;4.20;;
7813;SDS011;3952;48.364;16.022;2023-07-02T01:31:41;4.50;;;4.20;;
7813;SDS011;3952;48.364;16.022;2023-07-02T01:34:08;3.90;;;3.70;;
7813;SDS011;3952;48.364;16.022;2023-07-02T01:36:36;4.33;;;4.03;;
7813;SDS011;3952;48.364;16.022;2023-07-02T01:39:04;7.20;;;4.47;;
7813;SDS011;3952;48.364;16.022;2023-07-02T01:41:33;5.03;;;4.43;;
7813;SDS011;3952;48.364;16.022;2023-07-02T01:44:04;4.57;;;4.17;;
7813;SDS011;3952;48.364;16.022;2023-07-02T01:46:31;4.83;;;4.30;;
7813;SDS011;3952;48.364;16.022;2023-07-02T01:48:58;4.93;;;4.47;;
7813;SDS011;3952;48.364;16.022;2023-07-02T01:51:25;6.47;;;4.03;;
7813;SDS011;3952;48.364;16.022;2023-07-02T01:53:52;9.20;;;4.67;;
7813;SDS011;3952;48.364;16.022;2023-07-02T01:56:21;7.53;;;5.00;;
7813;SDS011;3952;48.364;16.022;2023-07-02T01:58:48;7.93;;;4.77;;
7813;SDS011;3952;48.364;16.022;2023-07-02T02:01:15;8.17;;;4.60;;
7813;SDS011;3952;48.364;16.022;2023-07-02T02:03:42;7.27;;;5.03;;
7813;SDS011;3952;48.364;16.022;2023-07-02T02:06:10;6.50;;;4.80;;
7813;SDS011;3952;48.364;16.022;2023-07-02T02:08:37;6.53;;;4.73;;
7813;SDS011;3952;48.364;16.022;2023-07-02T02:11:04;4.30;;;3.90;;
7813;SDS011;3952;48.364;16.022;2023-07-02T02:13:33;6.43;;;4.83;;
7813;SDS011;3952;48.364;16.022;2023-07-02T02:16:00;5.23;;;4.03;;
7813;SDS011;3952;48.364;16.022;2023-07-02T02:18:27;4.47;;;4.07;;
7813;SDS011;3952;48.364;16.022;2023-07-02T02:20:54;4.57;;;4.00;;
7813;SDS011;3952;48.364;16.022;2023-07-02T02:23:21;6.47;;;4.50;;
7813;SDS011;3952;48.364;16.022;2023-07-02T02:25:48;4.43;;;4.03;;
7813;SDS011;3952;48.364;16.022;2023-07-02T02:28:15;7.33;;;4.23;;
7813;SDS011;3952;48.364;16.022;2023-07-02T02:30:44;4.07;;;3.73;;
7813;SDS011;3952;48.364;16.022;2023-07-02T02:33:11;4.43;;;3.67;;
7813;SDS011;3952;48.364;16.022;2023-07-02T02:35:38;5.13;;;4.60;;
7813;SDS011;3952;48.364;16.022;2023-07-02T02:38:06;4.50;;;4.10;;
7813;SDS011;3952;48.364;16.022;2023-07-02T02:40:33;5.00;;;4.50;;
7813;SDS011;3952;48.364;16.022;2023-07-02T02:43:00;4.73;;;4.43;;
7813;SDS011;3952;48.364;16.022;2023-07-02T02:45:27;4.70;;;4.40;;
7813;SDS011;3952;48.364;16.022;2023-07-02T02:47:56;4.90;;;4.60;;
7813;SDS011;3952;48.364;16.022;2023-07-02T02:50:23;6.07;;;5.50;;
7813;SDS011;3952;48.364;16.022;2023-07-02T02:52:50;5.53;;;5.03;;
7813;SDS011;3952;48.364;16.022;2023-07-02T02:55:18;5.20;;;4.80;;
7813;SDS011;3952;48.364;16.022;2023-07-02T02:57:45;4.80;;;4.50;;
7813;SDS011;3952;48.364;16.022;2023-07-02T03:00:12;6.53;;;4.80;;
7813;SDS011;3952;48.364;16.022;2023-07-02T03:02:40;4.93;;;4.63;;
7813;SDS011;3952;48.364;16.022;2023-07-02T03:05:09;4.77;;;4.43;;
7813;SDS011;3952;48.364;16.022;2023-07-02T03:07:37;5.60;;;5.10;;
7813;SDS011;3952;48.364;16.022;2023-07-02T03:10:05;5.40;;;4.90;;
7813;SDS011;3952;48.364;16.022;2023-07-02T03:12:33;6.20;;;5.47;;
7813;SDS011;3952;48.364;16.022;2023-07-02T03:15:00;8.83;;;5.07;;
7813;SDS011;3952;48.364;16.022;2023-07-02T03:17:28;5.57;;;5.07;;
7813;SDS011;3952;48.364;16.022;2023-07-02T03:19:55;5.90;;;5.40;;
7813;SDS011;3952;48.364;16.022;2023-07-02T03:22:24;5.77;;;5.27;;
7813;SDS011;3952;48.364;16.022;2023-07-02T03:24:51;6.83;;;5.23;;
7813;SDS011;3952;48.364;16.022;2023-07-02T03:27:18;5.63;;;4.77;;
7813;SDS011;3952;48.364;16.022;2023-07-02T03:29:46;5.40;;;5.00;;
7813;SDS011;3952;48.364;16.022;2023-07-02T03:32:13;4.93;;;4.53;;
7813;SDS011;3952;48.364;16.022;2023-07-02T03:34:40;4.73;;;4.43;;
7813;SDS011;3952;48.364;16.022;2023-07-02T03:37:07;5.63;;;5.13;;
7813;SDS011;3952;48.364;16.022;2023-07-02T03:39:36;6.73;;;5.80;;
7813;SDS011;3952;48.364;16.022;2023-07-02T03:42:04;7.60;;;5.60;;
7813;SDS011;3952;48.364;16.022;2023-07-02T03:44:32;6.33;;;5.33;;
7813;SDS011;3952;48.364;16.022;2023-07-02T03:46:59;5.50;;;5.13;;
7813;SDS011;3952;48.364;16.022;2023-07-02T03:49:26;5.80;;;5.33;;
7813;SDS011;3952;48.364;16.022;2023-07-02T03:51:54;5.77;;;5.27;;
7813;SDS011;3952;48.364;16.022;2023-07-02T03:54:21;5.60;;;4.70;;
7813;SDS011;3952;48.364;16.022;2023-07-02T03:56:50;4.90;;;4.60;;
7813;SDS011;3952;48.364;16.022;2023-07-02T03:59:17;4.90;;;4.53;;
7813;SDS011;3952;48.364;16.022;2023-07-02T04:01:45;8.27;;;4.90;;
7813;SDS011;3952;48.364;16.022;2023-07-02T04:04:12;8.50;;;5.90;;
7813;SDS011;3952;48.364;16.022;2023-07-02T04:06:39;8.63;;;5.20;;
7813;SDS011;3952;48.364;16.022;2023-07-02T04:09:06;10.93;;;5.80;;
7813;SDS011;3952;48.364;16.022;2023-07-02T04:11:33;5.23;;;4.83;;
7813;SDS011;3952;48.364;16.022;2023-07-02T04:14:02;5.13;;;4.60;;
7813;SDS011;3952;48.364;16.022;2023-07-02T04:16:29;4.90;;;4.40;;
7813;SDS011;3952;48.364;16.022;2023-07-02T04:18:56;4.53;;;4.10;;
7813;SDS011;3952;48.364;16.022;2023-07-02T04:21:23;4.63;;;4.23;;
7813;SDS011;3952;48.364;16.022;2023-07-02T04:23:50;4.23;;;3.97;;
7813;SDS011;3952;48.364;16.022;2023-07-02T04:26:18;4.47;;;4.03;;
7813;SDS011;3952;48.364;16.022;2023-07-02T04:28:46;4.97;;;4.40;;
7813;SDS011;3952;48.364;16.022;2023-07-02T04:31:14;3.93;;;3.73;;
7813;SDS011;3952;48.364;16.022;2023-07-02T04:33:41;3.97;;;3.70;;
7813;SDS011;3952;48.364;16.022;2023-07-02T04:36:08;7.20;;;4.10;;
7813;SDS011;3952;48.364;16.022;2023-07-02T04:38:36;4.30;;;3.93;;
7813;SDS011;3952;48.364;16.022;2023-07-02T04:41:04;4.40;;;4.07;;
7813;SDS011;3952;48.364;16.022;2023-07-02T04:43:31;5.07;;;4.17;;
7813;SDS011;3952;48.364;16.022;2023-07-02T04:45:59;4.90;;;4.50;;
7813;SDS011;3952;48.364;16.022;2023-07-02T04:48:28;8.57;;;5.10;;
7813;SDS011;3952;48.364;16.022;2023-07-02T04:50:55;10.83;;;5.30;;
7813;SDS011;3952;48.364;16.022;2023-07-02T04:53:22;10.80;;;5.23;;
7813;SDS011;3952;48.364;16.022;2023-07-02T04:55:49;11.30;;;5.33;;
7813;SDS011;3952;48.364;16.022;2023-07-02T04:58:17;9.03;;;5.00;;
7813;SDS011;3952;48.364;16.022;2023-07-02T05:00:44;7.37;;;5.23;;
7813;SDS011;3952;48.364;16.022;2023-07-02T05:03:11;9.80;;;5.53;;
7813;SDS011;3952;48.364;16.022;2023-07-02T05:05:39;10.83;;;5.20;;
7813;SDS011;3952;48.364;16.022;2023-07-02T05:08:07;7.57;;;5.03;;
7813;SDS011;3952;48.364;16.022;2023-07-02T05:10:34;8.93;;;4.67;;
7813;SDS011;3952;48.364;16.022;2023-07-02T05:13:01;8.30;;;5.10;;
7813;SDS011;3952;48.364;16.022;2023-07-02T05:15:28;7.57;;;4.70;;
7813;SDS011;3952;48.364;16.022;2023-07-02T05:17:55;6.63;;;4.87;;
7813;SDS011;3952;48.364;16.022;2023-07-02T05:20:22;5.10;;;4.60;;
7813;SDS011;3952;48.364;16.022;2023-07-02T05:22:51;5.93;;;4.40;;
7813;SDS011;3952;48.364;16.022;2023-07-02T05:25:18;4.60;;;4.20;;
7813;SDS011;3952;48.364;16.022;2023-07-02T05:27:46;4.57;;;3.70;;
7813;SDS011;3952;48.364;16.022;2023-07-02T05:30:13;5.00;;;4.50;;
7813;SDS011;3952;48.364;16.022;2023-07-02T05:32:40;5.17;;;4.60;;
7813;SDS011;3952;48.364;16.022;2023-07-02T05:35:08;7.97;;;4.70;;
7813;SDS011;3952;48.364;16.022;2023-07-02T05:37:35;6.83;;;4.33;;
7813;SDS011;3952;48.364;16.022;2023-07-02T05:40:05;4.63;;;4.23;;
7813;SDS011;3952;48.364;16.022;2023-07-02T05:42:33;4.10;;;3.80;;
7813;SDS011;3952;48.364;16.022;2023-07-02T05:45:01;4.50;;;4.07;;
7813;SDS011;3952;48.364;16.022;2023-07-02T05:47:28;4.30;;;3.83;;
7813;SDS011;3952;48.364;16.022;2023-07-02T05:49:55;5.63;;;3.73;;
7813;SDS011;3952;48.364;16.022;2023-07-02T05:52:23;4.37;;;4.07;;
7813;SDS011;3952;48.364;16.022;2023-07-02T05:54:50;4.90;;;4.50;;
7813;SDS011;3952;48.364;16.022;2023-07-02T05:57:18;5.50;;;5.10;;
7813;SDS011;3952;48.364;16.022;2023-07-02T05:59:45;5.07;;;4.67;;
7813;SDS011;3952;48.364;16.022;2023-07-02T06:02:13;5.63;;;5.23;;
7813;SDS011;3952;48.364;16.022;2023-07-02T06:04:40;5.50;;;5.20;;
7813;SDS011;3952;48.364;16.022;2023-07-02T06:07:07;5.77;;;5.47;;
7813;SDS011;3952;48.364;16.022;2023-07-02T06:09:34;5.77;;;5.37;;
7813;SDS011;3952;48.364;16.022;2023-07-02T06:12:01;5.27;;;4.87;;
7813;SDS011;3952;48.364;16.022;2023-07-02T06:14:30;5.77;;;5.30;;
7813;SDS011;3952;48.364;16.022;2023-07-02T06:16:57;5.40;;;5.10;;
7813;SDS011;3952;48.364;16.022;2023-07-02T06:19:26;5.20;;;4.90;;
7813;SDS011;3952;48.364;16.022;2023-07-02T06:21:53;4.83;;;4.60;;
7813;SDS011;3952;48.364;16.022;2023-07-02T06:24:20;5.00;;;4.50;;
7813;SDS011;3952;48.364;16.022;2023-07-02T06:26:47;4.90;;;4.63;;
7813;SDS011;3952;48.364;16.022;2023-07-02T06:29:14;4.57;;;4.37;;
7813;SDS011;3952;48.364;16.022;2023-07-02T06:31:43;4.97;;;4.67;;
7813;SDS011;3952;48.364;16.022;2023-07-02T06:34:10;4.67;;;4.37;;
7813;SDS011;3952;48.364;16.022;2023-07-02T06:36:37;5.00;;;4.50;;
7813;SDS011;3952;48.364;16.022;2023-07-02T06:39:04;4.50;;;4.20;;
7813;SDS011;3952;48.364;16.022;2023-07-02T06:41:31;4.03;;;3.83;;
7813;SDS011;3952;48.364;16.022;2023-07-02T06:43:59;4.00;;;3.80;;
7813;SDS011;3952;48.364;16.022;2023-07-02T06:46:26;4.47;;;4.17;;
7813;SDS011;3952;48.364;16.022;2023-07-02T06:48:54;4.17;;;3.93;;
7813;SDS011;3952;48.364;16.022;2023-07-02T06:51:22;4.10;;;3.90;;
7813;SDS011;3952;48.364;16.022;2023-07-02T06:53:51;5.27;;;3.57;;
7813;SDS011;3952;48.364;16.022;2023-07-02T06:56:18;3.67;;;3.47;;
7813;SDS011;3952;48.364;16.022;2023-07-02T06:58:45;4.23;;;3.80;;
7813;SDS011;3952;48.364;16.022;2023-07-02T07:01:13;4.43;;;4.03;;
7813;SDS011;3952;48.364;16.022;2023-07-02T07:03:40;3.73;;;3.50;;
7813;SDS011;3952;48.364;16.022;2023-07-02T07:06:09;3.67;;;3.38;;
7813;SDS011;3952;48.364;16.022;2023-07-02T07:08:37;3.40;;;3.20;;
7813;SDS011;3952;48.364;16.022;2023-07-02T07:11:05;2.95;;;2.85;;
7813;SDS011;3952;48.364;16.022;2023-07-02T07:13:32;2.55;;;2.45;;
7813;SDS011;3952;48.364;16.022;2023-07-02T07:15:59;8.30;;;3.03;;
7813;SDS011;3952;48.364;16.022;2023-07-02T07:18:26;3.83;;;2.75;;
7813;SDS011;3952;48.364;16.022;2023-07-02T07:20:53;2.80;;;2.60;;
7813;SDS011;3952;48.364;16.022;2023-07-02T07:23:22;2.97;;;2.88;;
7813;SDS011;3952;48.364;16.022;2023-07-02T07:25:49;2.80;;;2.67;;
7813;SDS011;3952;48.364;16.022;2023-07-02T07:28:16;2.60;;;2.50;;
7813;SDS011;3952;48.364;16.022;2023-07-02T07:30:44;2.42;;;2.33;;
7813;SDS011;3952;48.364;16.022;2023-07-02T07:33:11;3.20;;;3.10;;
7813;SDS011;3952;48.364;16.022;2023-07-02T07:35:38;2.90;;;2.80;;
7813;SDS011;3952;48.364;16.022;2023-07-02T07:38:06;2.72;;;2.53;;
7813;SDS011;3952;48.364;16.022;2023-07-02T07:40:35;3.25;;;2.88;;
7813;SDS011;3952;48.364;16.022;2023-07-02T07:43:02;2.80;;;2.70;;
7813;SDS011;3952;48.364;16.022;2023-07-02T07:45:29;2.53;;;2.42;;
7813;SDS011;3952;48.364;16.022;2023-07-02T07:47:56;3.17;;;3.00;;
7813;SDS011;3952;48.364;16.022;2023-07-02T07:50:23;3.05;;;2.70;;
7813;SDS011;3952;48.364;16.022;2023-07-02T07:52:50;3.00;;;2.90;;
7813;SDS011;3952;48.364;16.022;2023-07-02T07:55:18;2.80;;;2.70;;
7813;SDS011;3952;48.364;16.022;2023-07-02T07:57:46;3.00;;;2.90;;
7813;SDS011;3952;48.364;16.022;2023-07-02T08:00:15;2.80;;;2.70;;
7813;SDS011;3952;48.364;16.022;2023-07-02T08:02:42;2.80;;;2.70;;
7813;SDS011;3952;48.364;16.022;2023-07-02T08:05:09;3.00;;;2.70;;
7813;SDS011;3952;48.364;16.022;2023-07-02T08:07:37;2.90;;;2.80;;
7813;SDS011;3952;48.364;16.022;2023-07-02T08:10:06;2.50;;;2.40;;
7813;SDS011;3952;48.364;16.022;2023-07-02T08:12:34;3.10;;;2.80;;
7813;SDS011;3952;48.364;16.022;2023-07-02T08:15:03;2.60;;;2.50;;
7813;SDS011;3952;48.364;16.022;2023-07-02T08:17:30;2.80;;;2.70;;
7813;SDS011;3952;48.364;16.022;2023-07-02T08:19:58;2.63;;;2.53;;
7813;SDS011;3952;48.364;16.022;2023-07-02T08:22:25;2.75;;;2.20;;
7813;SDS011;3952;48.364;16.022;2023-07-02T08:24:52;2.50;;;2.40;;
7813;SDS011;3952;48.364;16.022;2023-07-02T08:27:20;2.60;;;2.40;;
7813;SDS011;3952;48.364;16.022;2023-07-02T08:29:48;3.05;;;2.85;;
7813;SDS011;3952;48.364;16.022;2023-07-02T08:32:17;2.20;;;2.10;;
7813;SDS011;3952;48.364;16.022;2023-07-02T08:34:44;2.00;;;1.90;;
7813;SDS011;3952;48.364;16.022;2023-07-02T08:37:11;1.70;;;1.70;;
7813;SDS011;3952;48.364;16.022;2023-07-02T08:39:39;1.95;;;1.85;;
7813;SDS011;3952;48.364;16.022;2023-07-02T08:42:06;2.00;;;1.90;;
7813;SDS011;3952;48.364;16.022;2023-07-02T08:44:34;1.75;;;1.70;;
7813;SDS011;3952;48.364;16.022;2023-07-02T08:47:01;1.90;;;1.80;;
7813;SDS011;3952;48.364;16.022;2023-07-02T08:49:30;1.90;;;1.80;;
7813;SDS011;3952;48.364;16.022;2023-07-02T08:51:58;1.70;;;1.70;;
7813;SDS011;3952;48.364;16.022;2023-07-02T08:54:25;2.00;;;1.90;;
7813;SDS011;3952;48.364;16.022;2023-07-02T08:56:53;2.35;;;2.25;;
7813;SDS011;3952;48.364;16.022;2023-07-02T08:59:21;2.20;;;2.10;;
7813;SDS011;3952;48.364;16.022;2023-07-02T09:01:49;2.03;;;1.85;;
7813;SDS011;3952;48.364;16.022;2023-07-02T09:04:17;2.28;;;2.17;;
7813;SDS011;3952;48.364;16.022;2023-07-02T09:06:47;3.42;;;2.10;;
7813;SDS011;3952;48.364;16.022;2023-07-02T09:09:15;2.40;;;2.30;;
7813;SDS011;3952;48.364;16.022;2023-07-02T09:11:48;2.63;;;2.53;;
7813;SDS011;3952;48.364;16.022;2023-07-02T09:14:26;2.22;;;2.13;;
7813;SDS011;3952;48.364;16.022;2023-07-02T09:17:03;2.60;;;2.50;;
7813;SDS011;3952;48.364;16.022;2023-07-02T09:19:31;2.85;;;2.70;;
7813;SDS011;3952;48.364;16.022;2023-07-02T09:22:00;3.10;;;2.90;;
7813;SDS011;3952;48.364;16.022;2023-07-02T09:24:28;2.78;;;2.67;;
7813;SDS011;3952;48.364;16.022;2023-07-02T09:26:56;2.83;;;2.72;;
7813;SDS011;3952;48.364;16.022;2023-07-02T09:29:25;3.10;;;2.70;;
7813;SDS011;3952;48.364;16.022;2023-07-02T09:31:54;3.38;;;3.08;;
7813;SDS011;3952;48.364;16.022;2023-07-02T09:34:26;4.60;;;2.88;;
7813;SDS011;3952;48.364;16.022;2023-07-02T09:36:55;3.30;;;3.10;;
7813;SDS011;3952;48.364;16.022;2023-07-02T09:39:27;3.55;;;2.75;;
7813;SDS011;3952;48.364;16.022;2023-07-02T09:41:55;3.13;;;2.92;;
7813;SDS011;3952;48.364;16.022;2023-07-02T09:44:25;3.65;;;2.65;;
7813;SDS011;3952;48.364;16.022;2023-07-02T09:46:58;2.70;;;2.60;;
7813;SDS011;3952;48.364;16.022;2023-07-02T09:49:31;3.30;;;2.50;;
7813;SDS011;3952;48.364;16.022;2023-07-02T09:52:00;3.05;;;2.70;;
7813;SDS011;3952;48.364;16.022;2023-07-02T09:54:30;2.50;;;2.40;;
7813;SDS011;3952;48.364;16.022;2023-07-02T09:56:58;2.97;;;2.75;;
7813;SDS011;3952;48.364;16.022;2023-07-02T09:59:26;2.92;;;2.63;;
7813;SDS011;3952;48.364;16.022;2023-07-02T10:01:53;2.67;;;2.47;;
7813;SDS011;3952;48.364;16.022;2023-07-02T10:04:21;2.72;;;2.60;;
7813;SDS011;3952;48.364;16.022;2023-07-02T10:06:49;2.40;;;2.25;;
7813;SDS011;3952;48.364;16.022;2023-07-02T10:09:17;2.67;;;2.47;;
7813;SDS011;3952;48.364;16.022;2023-07-02T10:11:47;2.20;;;2.00;;
7813;SDS011;3952;48.364;16.022;2023-07-02T10:14:14;2.42;;;2.33;;
7813;SDS011;3952;48.364;16.022;2023-07-02T10:16:48;4.20;;;2.20;;
7813;SDS011;3952;48.364;16.022;2023-07-02T10:19:16;2.75;;;2.63;;
7813;SDS011;3952;48.364;16.022;2023-07-02T10:21:44;3.20;;;3.00;;
7813;SDS011;3952;48.364;16.022;2023-07-02T10:24:14;2.78;;;2.58;;
7813;SDS011;3952;48.364;16.022;2023-07-02T10:26:54;2.60;;;2.47;;
7813;SDS011;3952;48.364;16.022;2023-07-02T10:29:23;2.50;;;2.40;;
7813;SDS011;3952;48.364;16.022;2023-07-02T10:31:51;2.30;;;2.10;;
7813;SDS011;3952;48.364;16.022;2023-07-02T10:34:28;2.60;;;2.50;;
7813;SDS011;3952;48.364;16.022;2023-07-02T10:36:56;2.42;;;2.15;;
7813;SDS011;3952;48.364;16.022;2023-07-02T10:39:24;2.53;;;2.42;;
7813;SDS011;3952;48.364;16.022;2023-07-02T10:42:02;2.63;;;2.42;;
7813;SDS011;3952;48.364;16.022;2023-07-02T10:44:30;2.90;;;2.70;;
7813;SDS011;3952;48.364;16.022;2023-07-02T10:46:58;2.97;;;2.75;;
7813;SDS011;3952;48.364;16.022;2023-07-02T10:49:30;4.07;;;2.55;;
7813;SDS011;3952;48.364;16.022;2023-07-02T10:51:58;4.03;;;2.70;;
7813;SDS011;3952;48.364;16.022;2023-07-02T10:54:26;2.70;;;2.50;;
7813;SDS011;3952;48.364;16.022;2023-07-02T10:57:06;3.05;;;2.70;;
7813;SDS011;3952;48.364;16.022;2023-07-02T10:59:34;3.05;;;2.85;;
7813;SDS011;3952;48.364;16.022;2023-07-02T11:02:02;3.38;;;2.67;;
7813;SDS011;3952;48.364;16.022;2023-07-02T11:04:31;2.92;;;2.38;;
7813;SDS011;3952;48.364;16.022;2023-07-02T11:06:59;3.60;;;2.50;;
7813;SDS011;3952;48.364;16.022;2023-07-02T11:09:27;3.08;;;2.42;;
7813;SDS011;3952;48.364;16.022;2023-07-02T11:11:55;3.33;;;2.58;;
7813;SDS011;3952;48.364;16.022;2023-07-02T11:14:27;3.83;;;2.85;;
7813;SDS011;3952;48.364;16.022;2023-07-02T11:16:55;3.08;;;2.33;;
7813;SDS011;3952;48.364;16.022;2023-07-02T11:19:23;2.40;;;2.30;;
7813;SDS011;3952;48.364;16.022;2023-07-02T11:21:51;3.78;;;2.40;;
7813;SDS011;3952;48.364;16.022;2023-07-02T11:24:26;2.88;;;2.30;;
7813;SDS011;3952;48.364;16.022;2023-07-02T11:26:55;4.22;;;2.70;;
7813;SDS011;3952;48.364;16.022;2023-07-02T11:29:22;2.75;;;2.63;;
7813;SDS011;3952;48.364;16.022;2023-07-02T11:31:51;3.72;;;2.80;;
7813;SDS011;3952;48.364;16.022;2023-07-02T11:34:19;2.30;;;2.20;;
7813;SDS011;3952;48.364;16.022;2023-07-02T11:36:47;3.70;;;2.90;;
7813;SDS011;3952;48.364;16.022;2023-07-02T11:39:15;4.60;;;2.70;;
7813;SDS011;3952;48.364;16.022;2023-07-02T11:41:43;2.35;;;2.15;;
7813;SDS011;3952;48.364;16.022;2023-07-02T11:44:11;5.20;;;2.63;;
7813;SDS011;3952;48.364;16.022;2023-07-02T11:46:38;3.75;;;2.13;;
7813;SDS011;3952;48.364;16.022;2023-07-02T11:49:07;5.10;;;2.10;;
7813;SDS011;3952;48.364;16.022;2023-07-02T11:51:35;2.78;;;2.20;;
7813;SDS011;3952;48.364;16.022;2023-07-02T11:54:03;2.67;;;2.47;;
7813;SDS011;3952;48.364;16.022;2023-07-02T11:56:30;2.20;;;2.10;;
7813;SDS011;3952;48.364;16.022;2023-07-02T11:58:58;2.83;;;2.40;;
7813;SDS011;3952;48.364;16.022;2023-07-02T12:01:25;2.78;;;2.20;;
7813;SDS011;3952;48.364;16.022;2023-07-02T12:03:52;2.20;;;2.10;;
7813;SDS011;3952;48.364;16.022;2023-07-02T12:06:21;2.38;;;1.73;;
7813;SDS011;3952;48.364;16.022;2023-07-02T12:08:48;2.45;;;1.90;;
7813;SDS011;3952;48.364;16.022;2023-07-02T12:11:15;2.40;;;2.20;;
7813;SDS011;3952;48.364;16.022;2023-07-02T12:13:43;3.17;;;2.17;;
7813;SDS011;3952;48.364;16.022;2023-07-02T12:16:10;2.03;;;1.92;;
7813;SDS011;3952;48.364;16.022;2023-07-02T12:18:37;2.25;;;2.10;;
7813;SDS011;3952;48.364;16.022;2023-07-02T12:21:04;3.10;;;2.00;;
7813;SDS011;3952;48.364;16.022;2023-07-02T12:23:33;2.28;;;2.17;;
7813;SDS011;3952;48.364;16.022;2023-07-02T12:26:00;4.13;;;2.47;;
7813;SDS011;3952;48.364;16.022;2023-07-02T12:28:27;2.42;;;2.22;;
7813;SDS011;3952;48.364;16.022;2023-07-02T12:30:55;4.80;;;2.30;;
7813;SDS011;3952;48.364;16.022;2023-07-02T12:33:22;2.50;;;2.00;;
7813;SDS011;3952;48.364;16.022;2023-07-02T12:35:49;2.08;;;1.95;;
7813;SDS011;3952;48.364;16.022;2023-07-02T12:38:16;4.97;;;2.10;;
7813;SDS011;3952;48.364;16.022;2023-07-02T12:40:45;3.90;;;2.00;;
7813;SDS011;3952;48.364;16.022;2023-07-02T12:43:13;2.28;;;2.10;;
7813;SDS011;3952;48.364;16.022;2023-07-02T12:45:41;5.03;;;2.20;;
7813;SDS011;3952;48.364;16.022;2023-07-02T12:48:08;2.33;;;2.13;;
7813;SDS011;3952;48.364;16.022;2023-07-02T12:50:36;2.20;;;2.10;;
7813;SDS011;3952;48.364;16.022;2023-07-02T12:53:04;2.35;;;1.98;;
7813;SDS011;3952;48.364;16.022;2023-07-02T12:55:31;2.13;;;1.77;;
7813;SDS011;3952;48.364;16.022;2023-07-02T12:58:00;2.50;;;2.10;;
7813;SDS011;3952;48.364;16.022;2023-07-02T13:00:27;4.13;;;1.83;;
7813;SDS011;3952;48.364;16.022;2023-07-02T13:02:55;2.10;;;2.00;;
7813;SDS011;3952;48.364;16.022;2023-07-02T13:05:22;2.20;;;1.95;;
7813;SDS011;3952;48.364;16.022;2023-07-02T13:07:49;4.63;;;2.03;;
7813;SDS011;3952;48.364;16.022;2023-07-02T13:10:16;2.50;;;1.90;;
7813;SDS011;3952;48.364;16.022;2023-07-02T13:12:43;2.30;;;2.10;;
7813;SDS011;3952;48.364;16.022;2023-07-02T13:15:12;2.55;;;2.22;;
7813;SDS011;3952;48.364;16.022;2023-07-02T13:17:39;2.47;;;1.95;;
7813;SDS011;3952;48.364;16.022;2023-07-02T13:20:09;4.47;;;2.50;;
7813;SDS011;3952;48.364;16.022;2023-07-02T13:22:36;4.47;;;2.42;;
7813;SDS011;3952;48.364;16.022;2023-07-02T13:25:04;6.43;;;2.15;;
7813;SDS011;3952;48.364;16.022;2023-07-02T13:27:32;2.15;;;1.98;;
7813;SDS011;3952;48.364;16.022;2023-07-02T13:29:59;5.30;;;2.30;;
7813;SDS011;3952;48.364;16.022;2023-07-02T13:32:28;2.10;;;2.00;;
7813;SDS011;3952;48.364;16.022;2023-07-02T13:34:56;2.10;;;2.00;;
7813;SDS011;3952;48.364;16.022;2023-07-02T13:37:24;2.90;;;2.00;;
7813;SDS011;3952;48.364;16.022;2023-07-02T13:39:51;2.35;;;2.20;;
7813;SDS011;3952;48.364;16.022;2023-07-02T13:42:18;9.05;;;2.30;;
7813;SDS011;3952;48.364;16.022;2023-07-02T13:44:45;1.90;;;1.80;;
7813;SDS011;3952;48.364;16.022;2023-07-02T13:47:13;4.43;;;2.03;;
7813;SDS011;3952;48.364;16.022;2023-07-02T13:49:41;1.92;;;1.75;;
7813;SDS011;3952;48.364;16.022;2023-07-02T13:52:09;2.03;;;1.92;;
7813;SDS011;3952;48.364;16.022;2023-07-02T13:54:36;2.30;;;1.60;;
7813;SDS011;3952;48.364;16.022;2023-07-02T13:57:03;2.13;;;2.00;;
7813;SDS011;3952;48.364;16.022;2023-07-02T13:59:32;2.08;;;1.98;;
7813;SDS011;3952;48.364;16.022;2023-07-02T14:01:59;2.30;;;2.10;;
7813;SDS011;3952;48.364;16.022;2023-07-02T14:04:26;1.85;;;1.75;;
7813;SDS011;3952;48.364;16.022;2023-07-02T14:06:54;2.90;;;1.60;;
7813;SDS011;3952;48.364;16.022;2023-07-02T14:09:21;4.45;;;1.60;;
7813;SDS011;3952;48.364;16.022;2023-07-02T14:11:48;2.88;;;1.70;;
7813;SDS011;3952;48.364;16.022;2023-07-02T14:14:15;1.83;;;1.73;;
7813;SDS011;3952;48.364;16.022;2023-07-02T14:16:44;2.65;;;2.00;;
7813;SDS011;3952;48.364;16.022;2023-07-02T14:19:11;2.92;;;2.08;;
7813;SDS011;3952;48.364;16.022;2023-07-02T14:21:38;3.58;;;1.92;;
7813;SDS011;3952;48.364;16.022;2023-07-02T14:24:06;2.35;;;2.08;;
7813;SDS011;3952;48.364;16.022;2023-07-02T14:26:33;4.05;;;1.90;;
7813;SDS011;3952;48.364;16.022;2023-07-02T14:29:00;3.08;;;2.30;;
7813;SDS011;3952;48.364;16.022;2023-07-02T14:31:27;2.03;;;1.80;;
7813;SDS011;3952;48.364;16.022;2023-07-02T14:33:56;2.13;;;2.03;;
7813;SDS011;3952;48.364;16.022;2023-07-02T14:36:23;1.90;;;1.80;;
7813;SDS011;3952;48.364;16.022;2023-07-02T14:38:51;2.25;;;2.05;;
7813;SDS011;3952;48.364;16.022;2023-07-02T14:41:18;3.10;;;2.42;;
7813;SDS011;3952;48.364;16.022;2023-07-02T14:43:45;2.00;;;1.90;;
7813;SDS011;3952;48.364;16.022;2023-07-02T14:46:12;8.38;;;1.75;;
7813;SDS011;3952;48.364;16.022;2023-07-02T14:48:39;1.92;;;1.83;;
7813;SDS011;3952;48.364;16.022;2023-07-02T14:51:08;2.38;;;2.08;;
7813;SDS011;3952;48.364;16.022;2023-07-02T14:53:35;1.98;;;1.80;;
7813;SDS011;3952;48.364;16.022;2023-07-02T14:56:03;2.10;;;2.00;;
7813;SDS011;3952;48.364;16.022;2023-07-02T14:58:31;3.25;;;1.70;;
7813;SDS011;3952;48.364;16.022;2023-07-02T15:00:59;1.88;;;1.77;;
7813;SDS011;3952;48.364;16.022;2023-07-02T15:03:27;2.10;;;2.00;;